sensor_id;sensor_type;location;lat;lon;timestamp;pressure;altitude;pressure_sealevel;temperature;humidity
64080;BME280;51042;49.696;10.808;2023-04-10T00:01:25;99227.56;;;3.59;100.00
64080;BME280;51042;49.696;10.808;2023-04-10T00:03:51;99230.19;;;3.52;100.00
64080;BME280;51042;49.696;10.808;2023-04-10T00:06:16;99230.94;;;3.49;100.00
64080;BME280;51042;49.696;10.808;2023-04-10T00:08:42;99228.94;;;3.46;100.00
64080;BME280;51042;49.696;10.808;2023-04-10T00:11:07;99226.94;;;3.39;100.00
64080;BME280;51042;49.696;10.808;2023-04-10T00:13:32;99217.22;;;3.38;100.00
64080;BME280;51042;49.696;10.808;2023-04-10T00:15:58;99219.50;;;3.36;100.00
64080;BME280;51042;49.696;10.808;2023-04-10T00:18:23;99217.91;;;3.32;100.00
64080;BME280;51042;49.696;10.808;2023-04-10T00:20:48;99216.34;;;3.31;100.00
64080;BME280;51042;49.696;10.808;2023-04-10T00:23:14;99205.84;;;3.29;100.00
64080;BME280;51042;49.696;10.808;2023-04-10T00:25:39;99203.91;;;3.29;100.00
64080;BME280;51042;49.696;10.808;2023-04-10T00:28:04;99203.81;;;3.22;100.00
64080;BME280;51042;49.696;10.808;2023-04-10T00:30:30;99205.34;;;3.20;100.00
64080;BME280;51042;49.696;10.808;2023-04-10T00:32:55;99199.81;;;3.13;100.00
64080;BME280;51042;49.696;10.808;2023-04-10T00:35:21;99204.75;;;3.07;100.00
64080;BME280;51042;49.696;10.808;2023-04-10T00:37:46;99203.94;;;3.03;100.00
64080;BME280;51042;49.696;10.808;2023-04-10T00:40:11;99209.41;;;3.07;100.00
64080;BME280;51042;49.696;10.808;2023-04-10T00:42:37;99198.91;;;3.05;100.00
64080;BME280;51042;49.696;10.808;2023-04-10T00:45:03;99195.06;;;3.06;100.00
64080;BME280;51042;49.696;10.808;2023-04-10T00:47:29;99198.13;;;3.05;100.00
64080;BME280;51042;49.696;10.808;2023-04-10T00:49:55;99196.22;;;3.05;100.00
64080;BME280;51042;49.696;10.808;2023-04-10T00:52:21;99201.28;;;3.07;100.00
64080;BME280;51042;49.696;10.808;2023-04-10T00:54:46;99199.44;;;3.14;100.00
64080;BME280;51042;49.696;10.808;2023-04-10T00:57:12;99200.59;;;3.13;100.00
64080;BME280;51042;49.696;10.808;2023-04-10T00:59:37;99195.16;;;3.13;100.00
64080;BME280;51042;49.696;10.808;2023-04-10T01:02:02;99197.78;;;3.06;100.00
64080;BME280;51042;49.696;10.808;2023-04-10T01:04:28;99184.97;;;3.03;100.00
64080;BME280;51042;49.696;10.808;2023-04-10T01:06:58;99192.66;;;3.01;100.00
64080;BME280;51042;49.696;10.808;2023-04-10T01:15:11;99189.22;;;2.78;100.00
64080;BME280;51042;49.696;10.808;2023-04-10T01:17:41;99198.44;;;2.73;100.00
64080;BME280;51042;49.696;10.808;2023-04-10T01:20:23;99203.91;;;2.77;100.00
64080;BME280;51042;49.696;10.808;2023-04-10T01:31:19;99195.53;;;2.63;100.00
64080;BME280;51042;49.696;10.808;2023-04-10T01:33:52;99197.06;;;2.60;100.00
64080;BME280;51042;49.696;10.808;2023-04-10T01:36:26;99204.75;;;2.58;100.00
64080;BME280;51042;49.696;10.808;2023-04-10T01:38:56;99206.28;;;2.56;100.00
64080;BME280;51042;49.696;10.808;2023-04-10T01:41:23;99199.59;;;2.50;100.00
64080;BME280;51042;49.696;10.808;2023-04-10T01:43:50;99208.00;;;2.44;100.00
64080;BME280;51042;49.696;10.808;2023-04-10T01:46:18;99203.28;;;2.38;100.00
64080;BME280;51042;49.696;10.808;2023-04-10T01:48:45;99193.94;;;2.35;100.00
64080;BME280;51042;49.696;10.808;2023-04-10T01:51:11;99194.66;;;2.32;100.00
64080;BME280;51042;49.696;10.808;2023-04-10T01:53:37;99208.69;;;2.38;100.00
64080;BME280;51042;49.696;10.808;2023-04-10T01:56:04;99202.88;;;2.39;100.00
64080;BME280;51042;49.696;10.808;2023-04-10T01:58:32;99202.78;;;2.32;100.00
64080;BME280;51042;49.696;10.808;2023-04-10T02:00:58;99195.72;;;2.28;100.00
64080;BME280;51042;49.696;10.808;2023-04-10T02:03:23;99189.91;;;2.26;100.00
64080;BME280;51042;49.696;10.808;2023-04-10T02:08:41;99203.66;;;2.17;100.00
64080;BME280;51042;49.696;10.808;2023-04-10T02:11:35;99196.66;;;2.16;100.00
64080;BME280;51042;49.696;10.808;2023-04-10T02:14:03;99193.47;;;2.11;100.00
64080;BME280;51042;49.696;10.808;2023-04-10T02:16:31;99194.63;;;2.10;100.00
64080;BME280;51042;49.696;10.808;2023-04-10T02:18:57;99187.22;;;2.07;100.00
64080;BME280;51042;49.696;10.808;2023-04-10T02:21:25;99191.50;;;2.08;100.00
64080;BME280;51042;49.696;10.808;2023-04-10T02:23:51;99186.50;;;2.10;100.00
64080;BME280;51042;49.696;10.808;2023-04-10T02:26:16;99189.94;;;2.07;100.00
64080;BME280;51042;49.696;10.808;2023-04-10T02:28:41;99187.63;;;2.09;100.00
64080;BME280;51042;49.696;10.808;2023-04-10T02:31:07;99194.13;;;2.04;100.00
64080;BME280;51042;49.696;10.808;2023-04-10T02:33:32;99194.78;;;1.97;100.00
64080;BME280;51042;49.696;10.808;2023-04-10T02:35:59;99199.00;;;1.95;100.00
64080;BME280;51042;49.696;10.808;2023-04-10T02:38:25;99203.19;;;1.92;100.00
64080;BME280;51042;49.696;10.808;2023-04-10T02:40:51;99202.91;;;1.97;100.00
64080;BME280;51042;49.696;10.808;2023-04-10T02:43:17;99195.50;;;1.94;100.00
64080;BME280;51042;49.696;10.808;2023-04-10T02:45:42;99208.94;;;1.91;100.00
64080;BME280;51042;49.696;10.808;2023-04-10T02:48:08;99198.78;;;1.84;100.00
64080;BME280;51042;49.696;10.808;2023-04-10T02:50:34;99201.28;;;1.74;100.00
64080;BME280;51042;49.696;10.808;2023-04-10T02:53:00;99206.19;;;1.68;100.00
64080;BME280;51042;49.696;10.808;2023-04-10T02:55:25;99207.97;;;1.60;100.00
64080;BME280;51042;49.696;10.808;2023-04-10T02:57:51;99205.97;;;1.57;100.00
64080;BME280;51042;49.696;10.808;2023-04-10T03:00:16;99199.78;;;1.57;100.00
64080;BME280;51042;49.696;10.808;2023-04-10T03:02:43;99205.81;;;1.50;100.00
64080;BME280;51042;49.696;10.808;2023-04-10T03:05:09;99210.09;;;1.51;100.00
64080;BME280;51042;49.696;10.808;2023-04-10T03:07:34;99216.22;;;1.48;100.00
64080;BME280;51042;49.696;10.808;2023-04-10T03:09:59;99211.94;;;1.47;100.00
64080;BME280;51042;49.696;10.808;2023-04-10T03:12:24;99212.66;;;1.44;100.00
64080;BME280;51042;49.696;10.808;2023-04-10T03:14:50;99205.25;;;1.41;100.00
64080;BME280;51042;49.696;10.808;2023-04-10T03:17:15;99209.53;;;1.42;100.00
64080;BME280;51042;49.696;10.808;2023-04-10T03:19:40;99207.88;;;1.38;100.00
64080;BME280;51042;49.696;10.808;2023-04-10T03:22:06;99211.19;;;1.31;100.00
64080;BME280;51042;49.696;10.808;2023-04-10T03:24:31;99207.66;;;1.27;100.00
64080;BME280;51042;49.696;10.808;2023-04-10T03:26:56;99209.50;;;1.23;100.00
64080;BME280;51042;49.696;10.808;2023-04-10T03:29:22;99199.38;;;1.20;100.00
64080;BME280;51042;49.696;10.808;2023-04-10T03:31:47;99190.84;;;1.18;100.00
64080;BME280;51042;49.696;10.808;2023-04-10T03:34:13;99197.84;;;1.19;100.00
64080;BME280;51042;49.696;10.808;2023-04-10T03:36:38;99195.47;;;1.17;100.00
64080;BME280;51042;49.696;10.808;2023-04-10T03:39:03;99186.47;;;1.13;100.00
64080;BME280;51042;49.696;10.808;2023-04-10T03:41:29;99184.50;;;1.10;100.00
64080;BME280;51042;49.696;10.808;2023-04-10T03:43:55;99191.13;;;1.13;100.00
64080;BME280;51042;49.696;10.808;2023-04-10T03:46:20;99191.47;;;1.11;100.00
64080;BME280;51042;49.696;10.808;2023-04-10T03:48:46;99189.84;;;1.07;100.00
64080;BME280;51042;49.696;10.808;2023-04-10T03:51:13;99191.66;;;1.03;100.00
64080;BME280;51042;49.696;10.808;2023-04-10T03:53:38;99193.56;;;1.02;100.00
64080;BME280;51042;49.696;10.808;2023-04-10T03:56:04;99205.94;;;1.03;100.00
64080;BME280;51042;49.696;10.808;2023-04-10T03:58:30;99195.50;;;1.02;100.00
64080;BME280;51042;49.696;10.808;2023-04-10T04:00:55;99190.47;;;1.00;100.00
64080;BME280;51042;49.696;10.808;2023-04-10T04:03:21;99185.47;;;1.02;100.00
64080;BME280;51042;49.696;10.808;2023-04-10T04:05:46;99188.94;;;1.03;100.00
64080;BME280;51042;49.696;10.808;2023-04-10T04:08:12;99190.88;;;1.02;100.00
64080;BME280;51042;49.696;10.808;2023-04-10T04:10:37;99192.38;;;1.00;100.00
64080;BME280;51042;49.696;10.808;2023-04-10T04:13:03;99197.00;;;0.99;100.00
64080;BME280;51042;49.696;10.808;2023-04-10T04:15:28;99200.47;;;1.00;100.00
64080;BME280;51042;49.696;10.808;2023-04-10T04:17:54;99201.59;;;0.99;100.00
64080;BME280;51042;49.696;10.808;2023-04-10T04:20:19;99203.19;;;1.00;100.00
64080;BME280;51042;49.696;10.808;2023-04-10T04:22:44;99199.78;;;0.87;100.00
64080;BME280;51042;49.696;10.808;2023-04-10T04:25:10;99195.09;;;0.84;100.00
64080;BME280;51042;49.696;10.808;2023-04-10T04:27:36;99197.00;;;0.83;100.00
64080;BME280;51042;49.696;10.808;2023-04-10T04:30:01;99189.34;;;0.86;100.00
64080;BME280;51042;49.696;10.808;2023-04-10T04:32:27;99196.13;;;0.79;100.00
64080;BME280;51042;49.696;10.808;2023-04-10T04:34:52;99203.03;;;0.77;100.00
64080;BME280;51042;49.696;10.808;2023-04-10T04:37:18;99212.88;;;0.69;100.00
64080;BME280;51042;49.696;10.808;2023-04-10T04:39:43;99218.19;;;0.66;100.00
64080;BME280;51042;49.696;10.808;2023-04-10T04:42:08;99222.13;;;0.68;100.00
64080;BME280;51042;49.696;10.808;2023-04-10T04:44:34;99230.75;;;0.74;100.00
64080;BME280;51042;49.696;10.808;2023-04-10T04:46:59;99227.09;;;0.82;100.00
64080;BME280;51042;49.696;10.808;2023-04-10T04:49:24;99230.38;;;0.91;100.00
64080;BME280;51042;49.696;10.808;2023-04-10T04:51:50;99228.63;;;0.99;100.00
64080;BME280;51042;49.696;10.808;2023-04-10T04:54:15;99230.63;;;1.02;100.00
64080;BME280;51042;49.696;10.808;2023-04-10T04:56:40;99231.91;;;1.08;100.00
64080;BME280;51042;49.696;10.808;2023-04-10T04:59:06;99231.28;;;1.14;100.00
64080;BME280;51042;49.696;10.808;2023-04-10T05:01:31;99238.78;;;1.21;100.00
64080;BME280;51042;49.696;10.808;2023-04-10T05:03:56;99237.50;;;1.69;100.00
64080;BME280;51042;49.696;10.808;2023-04-10T05:06:22;99237.88;;;2.71;100.00
64080;BME280;51042;49.696;10.808;2023-04-10T05:08:47;99226.84;;;3.95;100.00
64080;BME280;51042;49.696;10.808;2023-04-10T05:11:12;99219.28;;;4.96;95.87
64080;BME280;51042;49.696;10.808;2023-04-10T05:13:38;99210.81;;;5.70;87.43
64080;BME280;51042;49.696;10.808;2023-04-10T05:16:03;99213.31;;;6.14;83.29
64080;BME280;51042;49.696;10.808;2023-04-10T05:18:29;99214.59;;;6.77;79.40
64080;BME280;51042;49.696;10.808;2023-04-10T05:20:54;99214.09;;;7.53;75.63
64080;BME280;51042;49.696;10.808;2023-04-10T05:23:20;99207.59;;;8.19;73.02
64080;BME280;51042;49.696;10.808;2023-04-10T05:25:45;99203.44;;;8.63;70.75
64080;BME280;51042;49.696;10.808;2023-04-10T05:28:10;99203.28;;;9.25;67.48
64080;BME280;51042;49.696;10.808;2023-04-10T05:30:36;99206.88;;;8.71;66.25
64080;BME280;51042;49.696;10.808;2023-04-10T05:33:01;99201.94;;;7.71;71.26
64080;BME280;51042;49.696;10.808;2023-04-10T05:35:26;99209.53;;;6.96;74.65
64080;BME280;51042;49.696;10.808;2023-04-10T05:37:52;99211.78;;;6.24;78.84
64080;BME280;51042;49.696;10.808;2023-04-10T05:40:17;99204.06;;;6.75;78.89
64080;BME280;51042;49.696;10.808;2023-04-10T05:42:42;99205.16;;;7.42;75.54
64080;BME280;51042;49.696;10.808;2023-04-10T05:45:08;99210.22;;;7.50;74.75
64080;BME280;51042;49.696;10.808;2023-04-10T05:47:33;99212.53;;;7.59;73.63
64080;BME280;51042;49.696;10.808;2023-04-10T05:49:59;99217.88;;;7.91;73.41
64080;BME280;51042;49.696;10.808;2023-04-10T05:52:24;99212.03;;;7.92;72.70
64080;BME280;51042;49.696;10.808;2023-04-10T05:54:49;99211.16;;;8.09;72.31
64080;BME280;51042;49.696;10.808;2023-04-10T05:57:16;99217.69;;;8.30;72.19
64080;BME280;51042;49.696;10.808;2023-04-10T05:59:41;99220.41;;;7.25;75.44
64080;BME280;51042;49.696;10.808;2023-04-10T06:02:07;99222.91;;;5.83;83.50
64080;BME280;51042;49.696;10.808;2023-04-10T06:04:32;99220.22;;;4.67;94.01
64080;BME280;51042;49.696;10.808;2023-04-10T06:06:57;99217.41;;;4.19;100.00
64080;BME280;51042;49.696;10.808;2023-04-10T06:09:23;99220.03;;;4.08;100.00
64080;BME280;51042;49.696;10.808;2023-04-10T06:11:48;99211.19;;;4.19;100.00
64080;BME280;51042;49.696;10.808;2023-04-10T06:14:13;99212.22;;;4.40;100.00
64080;BME280;51042;49.696;10.808;2023-04-10T06:16:39;99211.66;;;4.65;100.00
64080;BME280;51042;49.696;10.808;2023-04-10T06:19:04;99210.97;;;4.78;100.00
64080;BME280;51042;49.696;10.808;2023-04-10T06:21:30;99202.47;;;4.83;100.00
64080;BME280;51042;49.696;10.808;2023-04-10T06:23:56;99203.81;;;5.04;100.00
64080;BME280;51042;49.696;10.808;2023-04-10T06:26:22;99203.19;;;5.28;100.00
64080;BME280;51042;49.696;10.808;2023-04-10T06:28:48;99208.78;;;5.53;100.00
64080;BME280;51042;49.696;10.808;2023-04-10T06:31:17;99209.25;;;5.72;100.00
64080;BME280;51042;49.696;10.808;2023-04-10T06:33:43;99210.47;;;5.82;98.70
64080;BME280;51042;49.696;10.808;2023-04-10T06:36:09;99210.19;;;6.01;97.69
64080;BME280;51042;49.696;10.808;2023-04-10T06:38:35;99206.28;;;6.09;95.91
64080;BME280;51042;49.696;10.808;2023-04-10T06:41:02;99210.22;;;6.15;95.10
64080;BME280;51042;49.696;10.808;2023-04-10T06:43:28;99206.31;;;6.20;94.76
64080;BME280;51042;49.696;10.808;2023-04-10T06:45:54;99208.72;;;6.36;94.12
64080;BME280;51042;49.696;10.808;2023-04-10T06:48:19;99200.88;;;6.27;95.21
64080;BME280;51042;49.696;10.808;2023-04-10T06:50:45;99207.16;;;6.42;94.59
64080;BME280;51042;49.696;10.808;2023-04-10T06:53:10;99207.94;;;6.56;93.77
64080;BME280;51042;49.696;10.808;2023-04-10T06:55:35;99197.06;;;6.67;91.94
64080;BME280;51042;49.696;10.808;2023-04-10T06:58:01;99199.38;;;6.93;91.88
64080;BME280;51042;49.696;10.808;2023-04-10T07:00:26;99197.81;;;7.03;88.65
64080;BME280;51042;49.696;10.808;2023-04-10T07:02:52;99194.31;;;6.99;89.98
64080;BME280;51042;49.696;10.808;2023-04-10T07:05:17;99192.78;;;6.77;90.87
64080;BME280;51042;49.696;10.808;2023-04-10T07:07:43;99189.63;;;6.85;91.26
64080;BME280;51042;49.696;10.808;2023-04-10T07:10:08;99192.75;;;7.09;90.90
64080;BME280;51042;49.696;10.808;2023-04-10T07:12:34;99186.44;;;7.33;89.16
64080;BME280;51042;49.696;10.808;2023-04-10T07:14:59;99185.28;;;7.41;86.39
64080;BME280;51042;49.696;10.808;2023-04-10T07:17:25;99185.28;;;7.41;86.98
64080;BME280;51042;49.696;10.808;2023-04-10T07:19:50;99177.81;;;7.59;86.61
64080;BME280;51042;49.696;10.808;2023-04-10T07:22:16;99176.44;;;8.03;83.69
64080;BME280;51042;49.696;10.808;2023-04-10T07:24:41;99171.72;;;8.07;82.71
64080;BME280;51042;49.696;10.808;2023-04-10T07:27:06;99168.84;;;8.35;80.75
64080;BME280;51042;49.696;10.808;2023-04-10T07:29:32;99166.59;;;8.19;81.13
64080;BME280;51042;49.696;10.808;2023-04-10T07:31:57;99167.69;;;8.29;81.87
64080;BME280;51042;49.696;10.808;2023-04-10T07:34:23;99171.94;;;8.44;80.53
64080;BME280;51042;49.696;10.808;2023-04-10T07:36:49;99172.22;;;8.53;79.66
64080;BME280;51042;49.696;10.808;2023-04-10T07:39:15;99168.50;;;8.81;78.82
64080;BME280;51042;49.696;10.808;2023-04-10T07:41:40;99180.59;;;8.84;76.76
64080;BME280;51042;49.696;10.808;2023-04-10T07:44:05;99176.59;;;8.95;77.08
64080;BME280;51042;49.696;10.808;2023-04-10T07:46:31;99179.59;;;9.08;76.25
64080;BME280;51042;49.696;10.808;2023-04-10T07:48:56;99178.97;;;9.31;76.48
64080;BME280;51042;49.696;10.808;2023-04-10T07:51:21;99178.09;;;9.75;73.45
64080;BME280;51042;49.696;10.808;2023-04-10T07:53:47;99177.88;;;9.93;70.48
64080;BME280;51042;49.696;10.808;2023-04-10T07:56:15;99177.78;;;9.69;72.58
64080;BME280;51042;49.696;10.808;2023-04-10T07:58:42;99180.41;;;9.42;73.30
64080;BME280;51042;49.696;10.808;2023-04-10T08:01:07;99175.75;;;9.73;72.19
64080;BME280;51042;49.696;10.808;2023-04-10T08:03:39;99177.91;;;9.89;72.05
64080;BME280;51042;49.696;10.808;2023-04-10T08:06:06;99173.09;;;10.00;70.02
64080;BME280;51042;49.696;10.808;2023-04-10T08:08:34;99175.69;;;10.11;69.75
64080;BME280;51042;49.696;10.808;2023-04-10T08:11:00;99165.03;;;10.43;68.06
64080;BME280;51042;49.696;10.808;2023-04-10T08:13:26;99169.91;;;10.59;69.02
64080;BME280;51042;49.696;10.808;2023-04-10T08:15:52;99163.25;;;10.83;66.15
64080;BME280;51042;49.696;10.808;2023-04-10T08:18:17;99167.41;;;10.68;66.23
64080;BME280;51042;49.696;10.808;2023-04-10T08:20:42;99166.41;;;10.82;67.08
64080;BME280;51042;49.696;10.808;2023-04-10T08:23:07;99172.25;;;11.07;64.34
64080;BME280;51042;49.696;10.808;2023-04-10T08:25:33;99167.66;;;11.00;64.93
64080;BME280;51042;49.696;10.808;2023-04-10T08:27:58;99168.28;;;11.31;64.57
64080;BME280;51042;49.696;10.808;2023-04-10T08:30:24;99171.41;;;11.53;62.48
64080;BME280;51042;49.696;10.808;2023-04-10T08:32:49;99161.00;;;11.84;62.18
64080;BME280;51042;49.696;10.808;2023-04-10T08:35:15;99161.69;;;11.88;61.22
64080;BME280;51042;49.696;10.808;2023-04-10T08:37:40;99165.63;;;11.67;62.76
64080;BME280;51042;49.696;10.808;2023-04-10T08:40:06;99157.09;;;11.62;61.61
64080;BME280;51042;49.696;10.808;2023-04-10T08:42:31;99171.56;;;11.85;61.72
64080;BME280;51042;49.696;10.808;2023-04-10T08:44:57;99156.66;;;11.63;61.72
64080;BME280;51042;49.696;10.808;2023-04-10T08:47:22;99161.38;;;11.63;62.07
64080;BME280;51042;49.696;10.808;2023-04-10T08:49:55;99153.91;;;12.03;61.58
64080;BME280;51042;49.696;10.808;2023-04-10T08:52:23;99159.72;;;12.24;61.14
64080;BME280;51042;49.696;10.808;2023-04-10T08:54:52;99154.63;;;12.23;60.16
64080;BME280;51042;49.696;10.808;2023-04-10T08:57:18;99151.47;;;12.41;59.06
64080;BME280;51042;49.696;10.808;2023-04-10T08:59:45;99149.34;;;12.48;59.49
64080;BME280;51042;49.696;10.808;2023-04-10T09:02:11;99146.13;;;12.82;59.26
64080;BME280;51042;49.696;10.808;2023-04-10T09:04:37;99135.53;;;12.16;57.96
64080;BME280;51042;49.696;10.808;2023-04-10T09:07:02;99135.34;;;12.07;58.85
64080;BME280;51042;49.696;10.808;2023-04-10T09:09:28;99131.44;;;12.40;59.38
64080;BME280;51042;49.696;10.808;2023-04-10T09:11:56;99126.72;;;12.57;57.12
64080;BME280;51042;49.696;10.808;2023-04-10T09:14:28;99128.59;;;12.76;57.76
64080;BME280;51042;49.696;10.808;2023-04-10T09:17:14;99128.06;;;12.97;56.84
64080;BME280;51042;49.696;10.808;2023-04-10T09:19:44;99126.69;;;12.89;57.43
64080;BME280;51042;49.696;10.808;2023-04-10T09:22:11;99126.25;;;13.36;56.82
64080;BME280;51042;49.696;10.808;2023-04-10T09:24:37;99124.09;;;12.98;56.97
64080;BME280;51042;49.696;10.808;2023-04-10T09:27:04;99115.03;;;13.14;55.22
64080;BME280;51042;49.696;10.808;2023-04-10T09:29:37;99109.81;;;12.71;57.45
64080;BME280;51042;49.696;10.808;2023-04-10T09:32:13;99110.38;;;13.27;56.10
64080;BME280;51042;49.696;10.808;2023-04-10T09:35:06;99097.19;;;13.19;55.39
64080;BME280;51042;49.696;10.808;2023-04-10T09:37:32;99100.25;;;13.37;55.62
64080;BME280;51042;49.696;10.808;2023-04-10T09:39:59;99091.38;;;12.39;56.95
64080;BME280;51042;49.696;10.808;2023-04-10T09:42:29;99079.03;;;12.27;57.86
64080;BME280;51042;49.696;10.808;2023-04-10T09:45:00;99083.25;;;12.81;57.25
64080;BME280;51042;49.696;10.808;2023-04-10T09:47:26;99088.13;;;13.47;55.66
64080;BME280;51042;49.696;10.808;2023-04-10T09:49:53;99085.25;;;14.05;53.72
64080;BME280;51042;49.696;10.808;2023-04-10T09:52:29;99081.94;;;14.22;53.79
64080;BME280;51042;49.696;10.808;2023-04-10T09:54:57;99066.78;;;14.52;51.78
64080;BME280;51042;49.696;10.808;2023-04-10T09:57:24;99065.91;;;13.79;51.71
64080;BME280;51042;49.696;10.808;2023-04-10T09:59:51;99066.56;;;13.00;53.11
64080;BME280;51042;49.696;10.808;2023-04-10T10:02:18;99051.00;;;13.64;52.71
64080;BME280;51042;49.696;10.808;2023-04-10T10:04:46;99054.66;;;14.12;52.74
64080;BME280;51042;49.696;10.808;2023-04-10T10:07:16;99042.63;;;14.06;52.13
64080;BME280;51042;49.696;10.808;2023-04-10T10:09:43;99036.28;;;14.56;52.29
64080;BME280;51042;49.696;10.808;2023-04-10T10:12:14;99035.78;;;15.04;49.86
64080;BME280;51042;49.696;10.808;2023-04-10T10:15:30;99034.72;;;15.33;49.46
64080;BME280;51042;49.696;10.808;2023-04-10T10:17:55;99027.97;;;15.56;48.25
64080;BME280;51042;49.696;10.808;2023-04-10T10:20:28;99022.13;;;15.54;47.93
64080;BME280;51042;49.696;10.808;2023-04-10T10:22:57;99017.44;;;15.41;47.44
64080;BME280;51042;49.696;10.808;2023-04-10T10:25:23;99011.25;;;14.38;50.79
64080;BME280;51042;49.696;10.808;2023-04-10T10:27:50;99019.53;;;14.72;50.87
64080;BME280;51042;49.696;10.808;2023-04-10T10:30:17;99015.31;;;14.80;48.90
64080;BME280;51042;49.696;10.808;2023-04-10T10:32:44;99003.84;;;14.35;49.72
64080;BME280;51042;49.696;10.808;2023-04-10T10:35:11;99008.78;;;14.52;50.01
64080;BME280;51042;49.696;10.808;2023-04-10T10:37:36;99002.84;;;14.28;50.47
64080;BME280;51042;49.696;10.808;2023-04-10T10:42:44;98992.66;;;14.51;49.99
64080;BME280;51042;49.696;10.808;2023-04-10T10:45:18;98994.59;;;14.16;50.87
64080;BME280;51042;49.696;10.808;2023-04-10T10:47:52;98993.28;;;14.89;49.73
64080;BME280;51042;49.696;10.808;2023-04-10T10:50:18;98980.06;;;15.37;48.47
64080;BME280;51042;49.696;10.808;2023-04-10T10:52:47;98981.97;;;15.80;47.27
64080;BME280;51042;49.696;10.808;2023-04-10T10:57:46;98963.06;;;16.64;45.41
64080;BME280;51042;49.696;10.808;2023-04-10T11:00:18;98960.41;;;16.33;44.67
64080;BME280;51042;49.696;10.808;2023-04-10T11:08:15;98958.84;;;16.23;44.02
64080;BME280;51042;49.696;10.808;2023-04-10T11:10:58;98956.56;;;16.49;44.61
64080;BME280;51042;49.696;10.808;2023-04-10T11:13:25;98942.97;;;15.96;44.35
64080;BME280;51042;49.696;10.808;2023-04-10T11:15:50;98936.06;;;14.99;45.55
64080;BME280;51042;49.696;10.808;2023-04-10T11:18:16;98943.56;;;15.51;45.28
64080;BME280;51042;49.696;10.808;2023-04-10T11:23:33;98937.47;;;16.42;44.28
64080;BME280;51042;49.696;10.808;2023-04-10T11:25:59;98940.41;;;16.74;44.59
64080;BME280;51042;49.696;10.808;2023-04-10T11:33:46;98921.16;;;17.40;41.46
64080;BME280;51042;49.696;10.808;2023-04-10T11:36:33;98914.31;;;17.18;40.92
64080;BME280;51042;49.696;10.808;2023-04-10T11:39:00;98905.88;;;15.44;43.46
64080;BME280;51042;49.696;10.808;2023-04-10T11:41:36;98913.28;;;15.17;45.59
64080;BME280;51042;49.696;10.808;2023-04-10T11:44:03;98902.16;;;15.07;44.81
64080;BME280;51042;49.696;10.808;2023-04-10T11:46:30;98907.69;;;15.38;44.93
64080;BME280;51042;49.696;10.808;2023-04-10T11:49:07;98900.53;;;16.54;43.61
64080;BME280;51042;49.696;10.808;2023-04-10T11:51:34;98908.34;;;17.01;40.86
64080;BME280;51042;49.696;10.808;2023-04-10T11:54:06;98905.63;;;17.34;39.74
64080;BME280;51042;49.696;10.808;2023-04-10T11:56:33;98900.53;;;16.45;42.67
64080;BME280;51042;49.696;10.808;2023-04-10T11:58:59;98897.16;;;17.28;41.11
64080;BME280;51042;49.696;10.808;2023-04-10T12:01:26;98880.50;;;17.70;40.42
64080;BME280;51042;49.696;10.808;2023-04-10T12:03:52;98879.38;;;17.77;40.10
64080;BME280;51042;49.696;10.808;2023-04-10T12:06:18;98897.03;;;17.65;38.83
64080;BME280;51042;49.696;10.808;2023-04-10T12:08:44;98889.94;;;17.64;38.62
64080;BME280;51042;49.696;10.808;2023-04-10T12:11:18;98877.38;;;18.01;40.22
64080;BME280;51042;49.696;10.808;2023-04-10T12:13:45;98879.91;;;18.14;38.94
64080;BME280;51042;49.696;10.808;2023-04-10T12:16:11;98875.81;;;18.24;39.89
64080;BME280;51042;49.696;10.808;2023-04-10T12:18:37;98874.09;;;17.13;40.49
64080;BME280;51042;49.696;10.808;2023-04-10T12:21:03;98874.63;;;16.93;41.23
64080;BME280;51042;49.696;10.808;2023-04-10T12:23:29;98864.69;;;17.52;41.14
64080;BME280;51042;49.696;10.808;2023-04-10T12:26:08;98862.06;;;18.06;39.68
64080;BME280;51042;49.696;10.808;2023-04-10T12:28:35;98854.03;;;18.08;39.46
64080;BME280;51042;49.696;10.808;2023-04-10T12:31:02;98854.81;;;16.77;39.48
64080;BME280;51042;49.696;10.808;2023-04-10T12:33:27;98853.16;;;16.61;39.94
64080;BME280;51042;49.696;10.808;2023-04-10T12:35:52;98854.53;;;16.47;40.70
64080;BME280;51042;49.696;10.808;2023-04-10T12:38:33;98850.34;;;16.70;40.40
64080;BME280;51042;49.696;10.808;2023-04-10T12:41:00;98840.44;;;16.87;43.54
64080;BME280;51042;49.696;10.808;2023-04-10T12:43:36;98826.75;;;18.21;39.44
64080;BME280;51042;49.696;10.808;2023-04-10T12:46:06;98820.31;;;18.68;38.24
64080;BME280;51042;49.696;10.808;2023-04-10T12:48:33;98827.91;;;18.82;37.72
64080;BME280;51042;49.696;10.808;2023-04-10T12:50:59;98822.78;;;18.51;36.60
64080;BME280;51042;49.696;10.808;2023-04-10T12:53:25;98825.47;;;18.60;38.86
64080;BME280;51042;49.696;10.808;2023-04-10T12:55:58;98829.28;;;17.71;37.71
64080;BME280;51042;49.696;10.808;2023-04-10T12:58:28;98818.06;;;17.66;38.36
64080;BME280;51042;49.696;10.808;2023-04-10T13:00:58;98821.50;;;17.28;38.82
64080;BME280;51042;49.696;10.808;2023-04-10T13:03:27;98826.22;;;17.36;40.75
64080;BME280;51042;49.696;10.808;2023-04-10T13:05:53;98816.31;;;18.16;38.29
64080;BME280;51042;49.696;10.808;2023-04-10T13:08:18;98825.88;;;18.15;37.36
64080;BME280;51042;49.696;10.808;2023-04-10T13:10:44;98809.81;;;18.33;38.80
64080;BME280;51042;49.696;10.808;2023-04-10T13:13:09;98805.72;;;18.73;37.33
64080;BME280;51042;49.696;10.808;2023-04-10T13:15:38;98789.81;;;18.88;37.23
64080;BME280;51042;49.696;10.808;2023-04-10T13:18:03;98784.47;;;18.70;37.53
64080;BME280;51042;49.696;10.808;2023-04-10T13:20:31;98778.50;;;18.77;37.21
64080;BME280;51042;49.696;10.808;2023-04-10T13:22:57;98775.16;;;18.88;37.96
64080;BME280;51042;49.696;10.808;2023-04-10T13:25:22;98774.28;;;18.67;37.04
64080;BME280;51042;49.696;10.808;2023-04-10T13:27:48;98761.78;;;18.92;36.58